Terminal Aerodrome Forecast
Issued by NWS Wilmington, OH

Current Version | Previous Version | Graphics & Text | Print | Product List | Glossary On
Versions: 1 2 3 4 5 6 7 8 9 10 11 12 13 14 15 16 17 18 19 20 21 22 23 24 25 26
000
FTUS41 KILN 141455 AAA
TAFCVG
TAF AMD
KCVG 141455Z 1415/1518 34008KT P6SM BKN025
     FM141700 36006KT P6SM BKN035 BKN200
     FM150200 VRB03KT P6SM OVC150
     FM151000 20005KT P6SM SCT050
     FM151400 24009KT P6SM BKN050=

USA.gov is the U.S. government's official web portal to all federal, state and local government web resources and services.